Weather at Erdemli Helipad

Public forecast

Using degrees Celsius for public forecast. Weather courtesy of forecast.io.

Closest aviation weather report (METAR) to Erdemli Helipad

Closest report is Ercan International Airport, 7.1 nm (13.2 km) NW.

2022/12/04 05:50 (retrieved 12 minutes ago)

LCEN 040550Z 28008KT 9999 FEW025 BKN200 12/09 Q1020 NOSIG

Closest aviation forecast (TAF) to Erdemli Helipad

Closest forecast is Ercan International Airport, 7.1 nm (13.2 km) NW.

2022/12/04 06:03 (retrieved 0 seconds ago)

TAF TAF LCEN 040440Z 0406/0506 05010KT 9999 FEW030 BECMG 0417/0420 28012KT